createdAt,value
2018-10-09T01:15:22.035Z,7.70
2018-10-09T01:17:50.387Z,7.33
2018-10-09T01:26:14.021Z,8.00
2018-10-09T02:29:18.860Z,8.77
2018-10-09T02:31:47.147Z,8.43
2018-10-09T02:34:15.445Z,8.50
2018-10-09T02:36:43.710Z,9.20
2018-10-09T02:39:12.510Z,8.70
2018-10-09T02:41:40.781Z,8.90
2018-10-09T02:44:09.561Z,8.90
2018-10-09T02:46:37.821Z,9.10
2018-10-09T02:49:06.116Z,8.90
2018-10-09T02:51:34.403Z,9.23
2018-10-09T02:54:02.663Z,9.00
2018-10-09T02:56:30.954Z,9.13
2018-10-09T02:58:59.221Z,8.90
2018-10-09T03:01:27.517Z,10.07
2018-10-09T03:03:55.842Z,9.40
2018-10-09T03:06:24.097Z,9.50
2018-10-09T03:08:52.407Z,9.67
2018-10-09T03:11:20.684Z,10.20
2018-10-09T03:16:41.528Z,10.00
2018-10-09T03:19:19.174Z,11.00
2018-10-09T03:21:50.799Z,10.17
2018-10-09T03:24:32.206Z,10.50
2018-10-09T05:13:37.416Z,13.63
2018-10-09T05:16:06.050Z,13.73
2018-10-09T06:37:58.734Z,14.30
2018-10-09T06:40:27.031Z,15.23
2018-10-09T06:42:55.432Z,15.47
2018-10-09T06:45:23.688Z,14.60
2018-10-09T06:47:51.941Z,15.10
2018-10-09T06:50:20.185Z,15.03
2018-10-09T06:52:48.445Z,14.07
2018-10-09T06:55:16.714Z,14.97
2018-10-09T06:57:44.993Z,14.33
2018-10-09T07:00:13.289Z,15.73
2018-10-09T07:02:41.521Z,14.60
2018-10-09T07:05:09.776Z,14.53
2018-10-09T07:07:38.022Z,13.90
2018-10-09T07:10:06.410Z,14.57
2018-10-09T07:12:34.734Z,14.40
2018-10-09T07:21:04.785Z,13.83
2018-10-09T07:29:18.368Z,13.73
2018-10-09T07:31:46.661Z,14.53
2018-10-09T07:34:14.940Z,14.80
2018-10-09T07:36:43.194Z,14.67
2018-10-09T07:39:13.148Z,14.33
2018-10-09T07:41:41.730Z,15.87
2018-10-09T07:44:10.028Z,15.47
2018-10-09T07:46:38.269Z,16.03
2018-10-09T07:49:06.529Z,15.13
2018-10-09T07:51:35.695Z,15.60
2018-10-09T07:54:03.954Z,15.40
2018-10-09T07:56:32.242Z,16.07
2018-10-09T07:59:00.522Z,15.30
2018-10-09T08:01:28.793Z,14.87
2018-10-09T08:03:57.161Z,15.43
2018-10-09T08:06:25.425Z,15.23
2018-10-09T08:08:53.689Z,15.57
2018-10-09T08:11:21.976Z,13.97
2018-10-09T08:13:50.480Z,15.30
2018-10-09T08:16:18.816Z,14.83
2018-10-09T08:18:47.060Z,14.53
2018-10-09T08:21:16.014Z,16.03
2018-10-09T08:23:44.265Z,14.40
2018-10-09T09:15:09.067Z,16.13
2018-10-09T09:17:37.376Z,15.00
2018-10-09T09:20:05.688Z,14.00
2018-10-09T09:22:33.969Z,15.90
2018-10-09T09:25:02.226Z,15.10
2018-10-09T09:27:30.561Z,15.87
2018-10-09T09:29:58.741Z,16.37
2018-10-09T09:32:27.029Z,14.20
2018-10-09T09:34:55.341Z,15.50
2018-10-09T09:37:23.617Z,13.40
2018-10-09T09:39:51.885Z,13.47
2018-10-09T09:42:20.141Z,14.50
2018-10-09T09:44:48.389Z,14.83
2018-10-09T09:47:16.619Z,13.87
2018-10-09T09:49:44.870Z,13.27
2018-10-09T09:52:13.212Z,14.00
2018-10-09T09:54:41.417Z,14.17
2018-10-09T09:57:09.654Z,13.30
2018-10-09T09:59:37.905Z,13.23
2018-10-09T10:02:06.205Z,13.33
2018-10-09T10:04:34.475Z,12.57
2018-10-09T10:07:02.781Z,12.80
2018-10-09T10:09:31.055Z,12.57
2018-10-09T10:11:59.318Z,13.60
2018-10-09T10:17:20.486Z,13.10
2018-10-09T10:19:48.773Z,13.67
2018-10-09T10:22:17.033Z,10.03
2018-10-09T10:24:45.292Z,12.73
2018-10-09T10:27:13.569Z,13.30
2018-10-09T10:29:41.830Z,12.97
2018-10-09T10:32:10.112Z,13.13
2018-10-09T10:34:38.386Z,13.90
2018-10-09T10:37:06.885Z,12.50
2018-10-09T10:39:35.137Z,12.80
2018-10-09T10:42:03.454Z,13.50
2018-10-09T10:44:31.692Z,12.77
2018-10-09T10:46:59.941Z,12.70
2018-10-09T10:49:28.283Z,12.20
2018-10-09T10:51:56.484Z,13.80
2018-10-09T10:54:24.754Z,13.30
2018-10-09T10:56:53.007Z,12.57
2018-10-09T10:59:21.264Z,12.80
2018-10-09T11:01:49.603Z,14.07
2018-10-09T11:04:17.818Z,14.27
2018-10-09T11:06:46.099Z,13.93
2018-10-09T11:09:14.333Z,14.07
2018-10-09T11:11:42.601Z,14.60
2018-10-09T11:25:42.101Z,17.07
2018-10-09T11:28:10.365Z,17.30
2018-10-09T11:30:38.631Z,17.33
2018-10-09T11:33:07.082Z,18.53
2018-10-09T11:35:35.357Z,19.20
2018-10-09T11:38:03.600Z,18.70
2018-10-09T11:40:31.862Z,19.20
2018-10-09T11:43:00.127Z,18.90
2018-10-09T11:45:28.394Z,18.63
2018-10-09T11:47:56.665Z,19.67
2018-10-09T11:50:25.545Z,17.80
2018-10-09T11:52:53.962Z,18.33
2018-10-09T11:55:22.242Z,18.57
2018-10-09T11:57:50.490Z,19.50
2018-10-09T12:00:18.773Z,17.87
2018-10-09T12:02:47.067Z,17.77
2018-10-09T12:05:15.557Z,16.73
2018-10-09T12:07:43.854Z,16.53
2018-10-09T12:10:12.133Z,16.07
2018-10-09T13:30:10.917Z,14.27
2018-10-09T13:32:39.213Z,13.30
2018-10-09T13:35:07.482Z,13.90
2018-10-09T13:37:35.789Z,13.53
2018-10-09T13:40:04.126Z,14.43
2018-10-09T13:42:32.396Z,13.17
2018-10-09T13:45:00.665Z,14.33
2018-10-09T13:47:29.035Z,13.40
2018-10-09T13:49:57.225Z,12.90
2018-10-09T13:52:25.506Z,14.10
2018-10-09T13:54:53.761Z,14.43
2018-10-09T13:57:22.279Z,13.20
2018-10-09T13:59:50.334Z,12.57
2018-10-09T14:02:18.604Z,13.07
2018-10-09T14:04:47.090Z,11.93
2018-10-09T14:07:15.349Z,11.80
2018-10-09T14:09:43.674Z,12.47
2018-10-09T15:12:46.537Z,13.37
2018-10-09T15:26:45.875Z,13.07
2018-10-09T15:29:14.147Z,12.50
2018-10-09T15:31:42.370Z,13.77
2018-10-09T15:34:10.644Z,13.00
2018-10-09T15:36:38.917Z,12.70
2018-10-09T15:39:10.654Z,12.67
2018-10-09T15:41:42.014Z,13.50
2018-10-09T15:44:10.197Z,13.27
2018-10-09T15:46:38.481Z,12.10
2018-10-09T15:49:06.877Z,11.77
2018-10-09T15:51:35.153Z,12.27
2018-10-09T15:54:03.451Z,12.23
2018-10-09T15:56:31.793Z,12.50
2018-10-09T15:59:00.026Z,11.67
2018-10-09T16:01:28.302Z,12.77
2018-10-09T16:03:56.629Z,11.60
2018-10-09T16:06:24.913Z,11.23
2018-10-09T16:08:53.211Z,11.77
2018-10-09T16:11:21.507Z,12.17
2018-10-09T16:16:42.196Z,10.90
2018-10-09T16:22:03.452Z,12.10
2018-10-09T16:24:45.174Z,10.73
2018-10-09T16:27:13.482Z,12.50
2018-10-09T16:29:41.752Z,13.03
2018-10-09T16:32:10.057Z,14.17
2018-10-09T16:34:38.322Z,15.77
2018-10-09T16:37:06.592Z,17.17
2018-10-09T16:39:34.857Z,16.50
2018-10-09T16:42:03.096Z,17.03
2018-10-09T16:44:31.396Z,18.17
2018-10-09T16:47:04.306Z,16.97
2018-10-09T16:49:32.994Z,15.90
2018-10-09T16:52:01.272Z,16.33
2018-10-09T16:54:29.561Z,17.07
2018-10-09T16:56:57.830Z,14.70
2018-10-09T16:59:26.102Z,15.27
2018-10-09T17:01:54.408Z,15.10
2018-10-09T17:04:22.750Z,14.83
2018-10-09T17:06:51.066Z,15.23
2018-10-09T17:09:19.305Z,15.83
2018-10-09T17:11:47.582Z,14.63
2018-10-09T17:17:09.488Z,14.70
2018-10-09T17:19:37.776Z,14.90
2018-10-09T17:22:06.057Z,15.17
2018-10-09T17:24:34.318Z,14.30
2018-10-09T17:27:02.580Z,14.20
2018-10-09T17:29:30.861Z,14.33
2018-10-09T17:31:59.124Z,13.97
2018-10-09T17:34:27.417Z,14.20
2018-10-09T17:36:55.685Z,14.90
2018-10-09T17:39:24.048Z,14.30
2018-10-09T17:41:52.196Z,14.73
2018-10-09T17:44:20.507Z,13.87
2018-10-09T17:46:48.824Z,14.33
2018-10-09T17:49:17.082Z,13.00
2018-10-09T17:51:45.349Z,15.50
2018-10-09T17:54:13.620Z,14.90
2018-10-09T17:56:41.869Z,14.97
2018-10-09T17:59:10.138Z,14.30
2018-10-09T18:01:38.444Z,13.17
2018-10-09T18:04:07.124Z,13.63
2018-10-09T18:06:35.377Z,13.57
2018-10-09T18:17:41.058Z,10.57
2018-10-09T18:20:09.349Z,10.60
2018-10-09T18:22:37.602Z,10.17
2018-10-09T18:25:06.256Z,9.67
2018-10-09T18:27:34.513Z,10.70
2018-10-09T18:30:02.784Z,10.70
2018-10-09T18:32:31.124Z,10.60
2018-10-09T18:34:59.952Z,9.27
2018-10-09T18:37:28.176Z,9.43
2018-10-09T18:39:56.472Z,9.47
2018-10-09T18:42:24.730Z,9.20
2018-10-09T18:44:52.949Z,9.43
2018-10-09T18:47:26.388Z,9.43
2018-10-09T18:49:54.657Z,9.37
2018-10-09T18:52:22.941Z,9.40
2018-10-09T18:54:51.208Z,8.80
2018-10-09T18:57:19.461Z,8.67
2018-10-09T18:59:47.915Z,9.30
2018-10-09T19:02:16.472Z,9.80
2018-10-09T19:04:44.789Z,9.77
2018-10-09T19:07:13.129Z,9.40
2018-10-09T19:09:41.419Z,9.93
2018-10-09T19:12:10.105Z,10.00
2018-10-09T19:17:30.936Z,9.50
2018-10-09T19:19:59.261Z,9.43
2018-10-09T19:22:27.546Z,9.63
2018-10-09T19:24:55.822Z,9.63
2018-10-09T19:27:24.066Z,8.70
2018-10-09T19:29:52.296Z,8.97
2018-10-09T19:32:20.567Z,10.17
2018-10-09T19:34:48.824Z,8.73
2018-10-09T19:37:17.106Z,9.00
2018-10-09T19:39:45.453Z,9.53
2018-10-09T19:42:13.653Z,9.97
2018-10-09T19:44:41.943Z,9.67
2018-10-09T19:47:10.177Z,10.00
2018-10-09T19:49:38.455Z,11.37
2018-10-09T19:52:06.744Z,10.93
2018-10-09T19:54:35.040Z,10.67
2018-10-09T19:57:03.341Z,10.07
2018-10-09T19:59:31.592Z,9.63
2018-10-09T20:01:59.858Z,10.10
2018-10-09T20:04:28.142Z,11.13
2018-10-09T20:06:56.412Z,10.37
2018-10-09T20:09:24.667Z,10.23
2018-10-09T20:11:53.000Z,9.57
2018-10-09T20:14:21.310Z,10.13
2018-10-09T20:25:28.109Z,9.83
2018-10-09T21:13:55.356Z,10.90
2018-10-09T21:16:23.636Z,11.80
2018-10-09T21:18:51.919Z,11.30
2018-10-09T21:24:15.793Z,11.97
2018-10-09T21:27:03.386Z,10.80
2018-10-09T21:29:31.762Z,11.43
2018-10-09T21:32:00.002Z,11.37
2018-10-09T21:34:28.310Z,10.97
2018-10-09T21:36:56.590Z,11.50
2018-10-09T21:39:24.870Z,12.07
2018-10-09T21:41:53.129Z,12.00
2018-10-09T21:44:21.384Z,11.77
2018-10-09T21:46:49.632Z,10.87
2018-10-09T21:49:17.906Z,12.43
2018-10-09T21:51:46.206Z,12.70
2018-10-09T21:54:14.463Z,12.43
2018-10-09T21:56:42.745Z,13.43
2018-10-09T21:59:10.987Z,12.57
2018-10-09T22:01:39.257Z,12.90
2018-10-09T22:04:07.682Z,13.47
2018-10-09T22:06:35.969Z,13.70
2018-10-09T22:09:05.793Z,14.17
2018-10-09T22:11:34.062Z,13.20
2018-10-09T22:14:02.336Z,14.03
2018-10-09T22:16:30.607Z,14.63
2018-10-09T22:18:58.884Z,14.63
2018-10-09T22:21:27.166Z,15.53
2018-10-09T22:23:56.462Z,13.73
2018-10-09T22:26:24.765Z,14.13
2018-10-09T22:28:53.037Z,14.77
2018-10-09T22:31:21.338Z,14.83
2018-10-09T22:33:49.648Z,14.57
2018-10-09T22:36:17.924Z,14.60
2018-10-09T22:38:46.188Z,14.53
2018-10-09T22:41:14.442Z,14.27
2018-10-09T22:43:42.722Z,15.33
2018-10-09T22:46:11.013Z,15.43
2018-10-09T22:48:39.268Z,15.53
2018-10-09T22:51:07.652Z,15.17
2018-10-09T22:53:36.017Z,14.87
2018-10-09T22:56:04.280Z,14.10
2018-10-09T22:58:32.609Z,15.03
2018-10-09T23:01:00.899Z,15.40
2018-10-09T23:03:29.173Z,15.80
2018-10-09T23:05:57.453Z,14.93
2018-10-09T23:08:25.725Z,14.27
2018-10-09T23:10:54.004Z,14.40
2018-10-09T23:22:00.165Z,15.73
2018-10-09T23:24:28.419Z,15.30
2018-10-09T23:26:56.740Z,15.10
2018-10-09T23:29:25.025Z,15.20
2018-10-09T23:31:53.310Z,15.77
2018-10-09T23:34:21.564Z,16.70
2018-10-09T23:36:49.829Z,14.63
2018-10-09T23:39:18.121Z,15.90
2018-10-09T23:41:46.422Z,15.67
2018-10-09T23:44:14.701Z,15.67
2018-10-09T23:46:42.987Z,14.73
2018-10-09T23:49:11.258Z,15.33
2018-10-09T23:51:39.539Z,15.87
2018-10-09T23:54:08.374Z,16.07
2018-10-09T23:56:36.648Z,14.13
2018-10-09T23:59:04.959Z,16.67
